x

El Salvador Intl. Airport / Comalapa (78666) Weather Station

8:50am - Fri 12th Feb 2016 All times are CST. -6 hours from GMT.

  • Wind
    10mph
  • 空気 Temp 84°f
  • Sea Pressure 1014mb
  • El Salvador Intl. Airport / Comalapa
  • El Salvador Intl. Airport / Comalapa

More Historic Weather Station data

Upgrade to MSW Pro to gain access to the past 30 days of data for over 8000 Wavebouys and Weather Stations around the globe.

Join Pro

Comparision Forecast

View Surf forecast
   
Fri 02/12 8:50am 10
mph
1014mb 84f
7:50am 14
mph
1013mb 79f
6:50am 12
mph
1013mb 77f
5:50am 10
mph
1013mb 75f
4:50am 9 21 mph 1012mb 75f
3:50am 8 20 mph 1012mb 77f
2:50am 12 23 mph 1012mb 75f
12:50am 17
mph
1012mb 77f
Thu 02/11 11:50pm 16 28 mph 1013mb 77f
10:50pm 12 25 mph 1013mb 79f
9:50pm 10 22 mph 1014mb 79f
8:50pm 14 25 mph 1013mb 81f
7:50pm 18 30 mph 1013mb 82f
6:50pm 16 28 mph 1012mb 84f
5:50pm 17 29 mph 1010mb 91f
4:50pm 17 29 mph 1010mb 91f
3:50pm 18 30 mph 1010mb 93f
2:50pm 17 29 mph 1009mb 93f
1:50pm 17 29 mph 1010mb 93f
12:50pm 21 32 mph 1011mb 91f
11:50am 21 33 mph 1012mb 90f
10:50am 21 32 mph 1013mb 86f
9:50am 18 30 mph 1014mb 82f
8:50am 21 33 mph 1014mb 81f
7:50am 22 33 mph 1014mb 77f
6:50am 23 38 mph 1013mb 75f
5:50am 23 36 mph 1012mb 75f
4:50am 21 33 mph 1012mb 75f
3:50am 21 37 mph 1012mb 75f
2:50am 21 36 mph 1012mb 75f
1:50am 24 40 mph 1012mb 75f
12:50am 18 30 mph 1014mb 75f
Wed 02/10 11:50pm 20 31 mph 1014mb 77f
10:50pm 21 33 mph 1015mb 77f
9:50pm 18 36 mph 1015mb 77f
8:50pm 20 33 mph 1015mb 79f
7:50pm 22 33 mph 1014mb 79f
6:50pm 22 33 mph 1014mb 82f
5:50pm 17 29 mph 1013mb 84f
4:50pm 22 33 mph 1012mb 88f
3:50pm 21 33 mph 1012mb 88f
2:50pm 22 36 mph 1012mb 91f
1:50pm 22 35 mph 1013mb 90f
11:50am 23 35 mph 1014mb 90f
10:50am 24 39 mph 1015mb 86f
9:50am 21 37 mph 1015mb 82f
8:50am 20 33 mph 1015mb 79f
7:50am 22 33 mph 1015mb 77f
6:50am 18 31 mph 1014mb 75f
5:50am 22 33 mph 1013mb 73f
4:50am 24
mph
1013mb 73f
3:50am 23 35 mph 1013mb 73f
2:50am 24 37 mph 1012mb 73f
1:50am 23 36 mph 1013mb 73f
Tue 02/09 10:50pm 23 38 mph 1014mb 75f
9:50pm 22 35 mph 1014mb 75f
8:50pm 20 31 mph 1014mb 75f
7:50pm 16 29 mph 1014mb 77f
6:50pm 20 32 mph 1013mb 81f
5:50pm  -  31 mph 1012mb 82f
4:50pm 20
mph
1010mb 86f
3:50pm 20
mph
1010mb 90f
2:50pm 21 32 mph 1010mb 91f
1:50pm 20 35 mph 1010mb 91f
12:50pm 22 33 mph 1011mb 91f
11:50am 24 37 mph 1012mb 90f
10:50am 25 38 mph 1014mb 86f
9:50am 24 41 mph 1015mb 82f
8:50am 28 45 mph 1014mb 79f
7:50am 27 44 mph 1014mb 77f
6:50am 22 38 mph 1013mb 73f
5:50am 24 38 mph 1013mb 75f
4:50am 21 32 mph 1013mb 75f
3:50am 17 30 mph 1013mb 75f
2:50am 16 31 mph 1013mb 75f
1:50am 21 33 mph 1013mb 75f
12:50am 18 30 mph 1014mb 77f
Mon 02/08 11:50pm 17
mph
1014mb 77f
10:50pm 16 29 mph 1014mb 77f
9:50pm 12
mph
1013mb 77f
8:50pm 10 22 mph 1013mb 79f
7:50pm 12
mph
1012mb 81f
6:50pm 8 20 mph 1011mb 82f
5:50pm 5
mph
1010mb 86f
4:50pm 6
mph
1009mb 88f
3:50pm 12
mph
1008mb 95f